createdAt,value
2022-10-17T00:01:08.442Z,10.17
2022-10-17T00:03:38.404Z,11.03
2022-10-17T00:06:08.187Z,9.60
2022-10-17T00:08:36.857Z,10.33
2022-10-17T00:11:07.723Z,10.10
2022-10-17T00:13:38.158Z,10.33
2022-10-17T00:16:07.379Z,10.83
2022-10-17T00:18:35.998Z,10.50
2022-10-17T00:21:04.829Z,10.37
2022-10-17T00:23:33.951Z,11.70
2022-10-17T00:26:02.732Z,13.93
2022-10-17T00:28:31.481Z,14.77
2022-10-17T00:31:02.707Z,13.60
2022-10-17T00:33:31.960Z,11.73
2022-10-17T00:36:05.072Z,10.27
2022-10-17T00:38:33.567Z,11.40
2022-10-17T00:41:02.142Z,11.20
2022-10-17T00:43:31.164Z,10.93
2022-10-17T00:46:01.010Z,11.43
2022-10-17T00:48:29.567Z,10.67
2022-10-17T00:50:57.987Z,10.93
2022-10-17T00:53:26.383Z,10.67
2022-10-17T00:55:55.739Z,11.90
2022-10-17T00:58:24.356Z,12.30
2022-10-17T01:00:52.814Z,11.33
2022-10-17T01:03:22.671Z,10.37
2022-10-17T01:05:51.303Z,10.60
2022-10-17T01:08:19.823Z,10.50
2022-10-17T01:10:57.547Z,9.97
2022-10-17T01:13:32.776Z,10.80
2022-10-17T01:16:07.408Z,11.47
2022-10-17T01:18:48.437Z,11.00
2022-10-17T01:21:42.515Z,11.13
2022-10-17T01:24:56.462Z,10.03
2022-10-17T01:27:39.131Z,10.83
2022-10-17T01:30:45.945Z,10.20
2022-10-17T01:33:18.558Z,9.47
2022-10-17T01:35:52.415Z,10.07
2022-10-17T01:38:23.099Z,10.37
2022-10-17T01:40:53.811Z,10.23
2022-10-17T01:43:24.304Z,10.73
2022-10-17T01:45:57.223Z,11.13
2022-10-17T01:48:29.765Z,10.57
2022-10-17T01:51:01.335Z,9.97
2022-10-17T01:53:33.100Z,10.00
2022-10-17T01:56:03.880Z,10.33
2022-10-17T01:58:34.623Z,10.50
2022-10-17T02:01:04.844Z,10.37
2022-10-17T02:03:35.566Z,9.97
2022-10-17T02:06:04.628Z,10.40
2022-10-17T02:08:43.502Z,9.67
2022-10-17T02:11:15.623Z,9.37
2022-10-17T02:14:04.777Z,9.50
2022-10-17T02:16:38.690Z,9.10
2022-10-17T02:19:32.214Z,9.50
2022-10-17T02:22:08.417Z,8.80
2022-10-17T02:24:43.452Z,9.53
2022-10-17T02:27:15.191Z,9.47
2022-10-17T02:29:48.610Z,9.17
2022-10-17T02:34:52.994Z,9.37
2022-10-17T02:37:25.684Z,10.17
2022-10-17T02:39:56.431Z,9.83
2022-10-17T02:42:26.369Z,10.37
2022-10-17T02:44:56.056Z,10.13
2022-10-17T02:47:27.341Z,9.67
2022-10-17T02:49:58.842Z,9.03
2022-10-17T02:52:31.837Z,8.90
2022-10-17T02:55:04.843Z,9.23
2022-10-17T02:57:37.392Z,9.00
2022-10-17T03:00:08.937Z,9.20
2022-10-17T03:02:42.017Z,9.50
2022-10-17T03:05:13.443Z,8.07
2022-10-17T03:07:41.854Z,7.73
2022-10-17T03:10:10.536Z,8.20
2022-10-17T03:12:39.245Z,7.53
2022-10-17T03:15:08.727Z,13.27
2022-10-17T03:17:37.461Z,18.60
2022-10-17T03:20:07.219Z,10.10
2022-10-17T03:22:37.024Z,9.37
2022-10-17T03:25:05.902Z,8.50
2022-10-17T03:27:34.337Z,8.13
2022-10-17T03:30:02.793Z,10.07
2022-10-17T03:32:31.196Z,13.93
2022-10-17T03:34:59.602Z,15.27
2022-10-17T03:37:28.296Z,21.40
2022-10-17T03:39:58.474Z,13.53
2022-10-17T03:42:26.969Z,9.80
2022-10-17T03:44:55.621Z,9.07
2022-10-17T03:47:24.037Z,8.20
2022-10-17T03:49:53.569Z,8.00
2022-10-17T03:52:22.092Z,15.87
2022-10-17T03:54:51.457Z,23.10
2022-10-17T03:57:21.291Z,14.30
2022-10-17T03:59:51.670Z,12.13
2022-10-17T04:02:20.147Z,10.07
2022-10-17T04:04:48.628Z,9.37
2022-10-17T04:07:17.124Z,8.53
2022-10-17T04:09:45.710Z,8.80
2022-10-17T04:12:14.158Z,14.00
2022-10-17T04:14:43.938Z,14.47
2022-10-17T04:17:12.359Z,10.77
2022-10-17T04:19:40.764Z,9.90
2022-10-17T04:22:09.562Z,10.07
2022-10-17T04:24:37.983Z,9.37
2022-10-17T04:27:08.398Z,10.77
2022-10-17T04:29:36.826Z,10.20
2022-10-17T04:32:06.866Z,9.53
2022-10-17T04:34:35.282Z,10.57
2022-10-17T04:37:03.727Z,9.37
2022-10-17T04:39:32.192Z,11.37
2022-10-17T04:42:00.626Z,9.80
2022-10-17T04:44:30.948Z,10.17
2022-10-17T04:46:59.356Z,9.20
2022-10-17T04:49:29.255Z,8.60
2022-10-17T04:51:57.761Z,7.93
2022-10-17T04:54:26.450Z,7.70
2022-10-17T04:56:54.864Z,9.23
2022-10-17T04:59:23.237Z,8.43
2022-10-17T05:01:51.910Z,9.23
2022-10-17T05:04:23.887Z,9.57
2022-10-17T05:06:54.711Z,9.93
2022-10-17T05:09:23.184Z,9.40
2022-10-17T05:11:51.629Z,9.27
2022-10-17T05:14:20.153Z,9.30
2022-10-17T05:16:48.944Z,9.70
2022-10-17T05:19:18.418Z,8.90
2022-10-17T05:21:46.841Z,8.50
2022-10-17T05:24:16.808Z,9.30
2022-10-17T05:26:45.258Z,8.53
2022-10-17T05:29:13.683Z,8.43
2022-10-17T05:31:42.175Z,9.43
2022-10-17T05:34:13.165Z,9.53
2022-10-17T05:36:42.462Z,9.23
2022-10-17T05:39:10.846Z,9.00
2022-10-17T05:41:40.629Z,9.70
2022-10-17T05:44:09.022Z,8.57
2022-10-17T05:46:37.439Z,9.87
2022-10-17T05:49:14.788Z,10.40
2022-10-17T05:51:53.984Z,10.33
2022-10-17T05:54:22.398Z,10.23
2022-10-17T05:56:54.282Z,9.80
2022-10-17T05:59:22.975Z,10.33
2022-10-17T06:01:51.587Z,11.13
2022-10-17T06:04:20.060Z,9.80
2022-10-17T06:06:48.592Z,9.70
2022-10-17T06:09:17.027Z,9.70
2022-10-17T06:11:45.466Z,9.30
2022-10-17T06:14:15.404Z,10.40
2022-10-17T06:16:43.915Z,10.50
2022-10-17T06:19:12.639Z,10.57
2022-10-17T06:21:41.047Z,10.47
2022-10-17T06:24:09.543Z,10.00
2022-10-17T06:26:37.952Z,10.60
2022-10-17T06:29:06.429Z,10.80
2022-10-17T06:31:36.279Z,9.40
2022-10-17T06:34:04.663Z,9.03
2022-10-17T06:36:33.219Z,8.97
2022-10-17T06:39:01.830Z,9.23
2022-10-17T06:41:30.391Z,9.00
2022-10-17T06:43:58.778Z,9.00
2022-10-17T06:46:29.799Z,8.63
2022-10-17T06:48:59.601Z,9.50
2022-10-17T06:51:28.065Z,9.90
2022-10-17T06:53:56.492Z,10.30
2022-10-17T06:56:24.922Z,10.70
2022-10-17T06:58:53.890Z,21.77
2022-10-17T07:01:22.519Z,18.30
2022-10-17T07:03:51.046Z,20.67
2022-10-17T07:06:20.836Z,19.33
2022-10-17T07:08:50.529Z,25.37
2022-10-17T07:11:22.152Z,23.77
2022-10-17T07:13:50.828Z,14.37
2022-10-17T07:16:19.383Z,12.07
2022-10-17T07:18:50.277Z,10.00
2022-10-17T07:21:20.169Z,9.07
2022-10-17T07:23:48.588Z,9.57
2022-10-17T07:26:18.324Z,10.60
2022-10-17T07:28:49.400Z,10.20
2022-10-17T07:31:18.978Z,10.10
2022-10-17T07:33:47.809Z,10.60
2022-10-17T07:36:16.740Z,10.70
2022-10-17T07:38:46.596Z,10.63
2022-10-17T07:41:19.224Z,10.67
2022-10-17T07:43:50.066Z,17.50
2022-10-17T07:46:18.493Z,21.97
2022-10-17T07:48:46.892Z,16.20
2022-10-17T07:51:15.418Z,12.90
2022-10-17T07:53:46.548Z,12.27
2022-10-17T07:56:18.711Z,11.07
2022-10-17T07:58:48.270Z,11.30
2022-10-17T08:01:17.577Z,11.60
2022-10-17T08:03:46.566Z,12.33
2022-10-17T08:06:15.834Z,10.97
2022-10-17T08:08:44.361Z,10.87
2022-10-17T08:11:15.227Z,10.03
2022-10-17T08:13:45.071Z,10.70
2022-10-17T08:16:14.620Z,11.37
2022-10-17T08:18:44.057Z,12.00
2022-10-17T08:21:14.346Z,11.57
2022-10-17T08:23:42.927Z,11.00
2022-10-17T08:26:13.495Z,11.73
2022-10-17T08:28:42.095Z,11.53
2022-10-17T08:31:14.381Z,11.27
2022-10-17T08:33:43.272Z,10.77
2022-10-17T08:36:13.565Z,10.77
2022-10-17T08:38:43.694Z,9.73
2022-10-17T08:41:16.763Z,10.23
2022-10-17T08:43:57.444Z,11.27
2022-10-17T08:46:31.557Z,10.30
2022-10-17T08:49:00.563Z,10.27
2022-10-17T08:51:31.903Z,10.70
2022-10-17T08:54:05.552Z,9.87
2022-10-17T08:56:48.489Z,10.20
2022-10-17T08:59:21.454Z,10.33
2022-10-17T09:01:53.963Z,9.83
2022-10-17T09:04:38.588Z,8.90
2022-10-17T09:07:11.764Z,10.20
2022-10-17T09:09:45.700Z,10.57
2022-10-17T09:12:19.136Z,10.87
2022-10-17T09:15:15.502Z,10.77
2022-10-17T09:17:52.135Z,11.00
2022-10-17T09:20:22.183Z,9.97
2022-10-17T09:22:53.606Z,10.57
2022-10-17T09:25:22.739Z,10.97
2022-10-17T09:27:53.808Z,11.53
2022-10-17T09:30:44.714Z,11.73
2022-10-17T09:33:28.371Z,10.77
2022-10-17T09:36:07.638Z,10.93
2022-10-17T09:38:41.778Z,11.77
2022-10-17T09:41:42.785Z,11.50
2022-10-17T09:44:21.737Z,11.60
2022-10-17T09:47:04.536Z,12.17
2022-10-17T09:49:36.082Z,12.57
2022-10-17T09:52:06.439Z,12.53
2022-10-17T09:54:43.120Z,11.67
2022-10-17T09:57:13.091Z,12.13
2022-10-17T09:59:43.070Z,12.30
2022-10-17T10:02:18.576Z,12.10
2022-10-17T10:05:07.402Z,11.70
2022-10-17T10:07:38.225Z,12.03
2022-10-17T10:10:09.229Z,12.83
2022-10-17T10:12:40.094Z,12.90
2022-10-17T10:15:34.324Z,12.63
2022-10-17T10:18:02.978Z,12.33
2022-10-17T10:20:35.360Z,12.93
2022-10-17T10:23:14.640Z,12.67
2022-10-17T10:25:57.478Z,12.30
2022-10-17T10:28:31.009Z,12.63
2022-10-17T10:31:01.507Z,12.10
2022-10-17T10:33:31.323Z,11.73
2022-10-17T10:36:03.419Z,11.83
2022-10-17T10:38:33.391Z,12.23
2022-10-17T10:41:04.686Z,12.70
2022-10-17T10:43:36.696Z,13.07
2022-10-17T10:46:07.869Z,11.70
2022-10-17T10:48:37.554Z,12.67
2022-10-17T10:51:12.982Z,12.83
2022-10-17T10:53:45.703Z,12.93
2022-10-17T10:56:18.418Z,13.00
2022-10-17T10:58:56.983Z,12.57
2022-10-17T11:01:31.106Z,12.20
2022-10-17T11:04:12.047Z,11.77
2022-10-17T11:06:44.406Z,12.33
2022-10-17T11:09:21.125Z,12.47
2022-10-17T11:11:55.942Z,13.10
2022-10-17T11:14:33.935Z,12.77
2022-10-17T11:17:07.019Z,12.47
2022-10-17T11:19:40.929Z,12.40
2022-10-17T11:22:13.996Z,13.53
2022-10-17T11:24:46.042Z,12.97
2022-10-17T11:27:14.504Z,13.20
2022-10-17T11:29:43.671Z,14.50
2022-10-17T11:32:16.756Z,14.13
2022-10-17T11:34:47.763Z,32.00
2022-10-17T11:37:21.938Z,14.27
2022-10-17T11:39:54.172Z,18.40
2022-10-17T11:42:25.810Z,16.50
2022-10-17T11:44:58.976Z,16.87
2022-10-17T11:47:33.832Z,15.27
2022-10-17T11:53:00.468Z,19.30
2022-10-17T11:55:30.200Z,26.43
2022-10-17T11:58:07.380Z,14.97
2022-10-17T12:00:48.791Z,13.67
2022-10-17T12:03:30.345Z,16.70
2022-10-17T12:06:03.645Z,17.90
2022-10-17T12:08:37.769Z,16.97
2022-10-17T12:11:11.928Z,14.87
2022-10-17T12:13:51.967Z,16.80
2022-10-17T12:16:50.885Z,15.80
2022-10-17T12:19:43.242Z,15.80
2022-10-17T12:22:29.570Z,20.60
2022-10-17T12:25:01.895Z,14.23
2022-10-17T12:27:38.479Z,12.87
2022-10-17T12:30:20.283Z,13.50
2022-10-17T12:33:06.764Z,13.97
2022-10-17T12:35:38.501Z,13.97
2022-10-17T12:38:23.549Z,14.17
2022-10-17T12:41:03.928Z,13.37
2022-10-17T12:43:56.571Z,14.17
2022-10-17T12:46:51.111Z,13.10
2022-10-17T12:49:45.390Z,13.70
2022-10-17T12:52:23.099Z,14.43
2022-10-17T12:55:13.201Z,14.40
2022-10-17T12:57:50.176Z,14.10
2022-10-17T13:00:22.491Z,14.47
2022-10-17T13:02:53.322Z,14.17
2022-10-17T13:05:28.077Z,14.93
2022-10-17T13:07:57.283Z,15.43
2022-10-17T13:10:29.204Z,14.50
2022-10-17T13:13:07.169Z,14.67
2022-10-17T13:15:36.238Z,14.43
2022-10-17T13:18:05.115Z,15.30
2022-10-17T13:20:33.896Z,14.93
2022-10-17T13:23:02.554Z,15.13
2022-10-17T13:25:30.960Z,16.07
2022-10-17T13:28:12.618Z,15.13
2022-10-17T13:30:41.359Z,16.50
2022-10-17T13:33:33.866Z,16.03
2022-10-17T13:36:04.663Z,15.27
2022-10-17T13:38:36.781Z,16.07
2022-10-17T13:41:34.207Z,15.73
2022-10-17T13:44:05.508Z,16.73
2022-10-17T13:46:38.462Z,15.47
2022-10-17T13:49:16.762Z,16.27
2022-10-17T13:51:46.811Z,16.13
2022-10-17T13:54:33.765Z,16.60
2022-10-17T13:57:03.175Z,16.33
2022-10-17T13:59:38.657Z,15.70
2022-10-17T14:02:12.640Z,16.63
2022-10-17T14:05:11.723Z,18.17
2022-10-17T14:07:58.144Z,15.83
2022-10-17T14:10:25.706Z,16.30
2022-10-17T14:12:55.287Z,15.40
2022-10-17T14:15:27.971Z,15.00
2022-10-17T14:17:57.871Z,15.70
2022-10-17T14:23:32.003Z,15.50
2022-10-17T14:26:12.465Z,14.20
2022-10-17T14:28:42.236Z,15.60
2022-10-17T14:31:25.524Z,14.90
2022-10-17T14:33:54.604Z,14.83
2022-10-17T14:36:35.248Z,15.53
2022-10-17T14:39:04.455Z,15.00
2022-10-17T14:41:42.768Z,14.93
2022-10-17T14:44:20.263Z,33.07
2022-10-17T14:46:53.387Z,28.97
2022-10-17T14:49:27.124Z,22.40
2022-10-17T14:52:39.046Z,25.50
2022-10-17T14:55:23.555Z,27.90
2022-10-17T14:57:52.142Z,20.23
2022-10-17T15:00:22.097Z,15.80
2022-10-17T15:02:53.522Z,15.67
2022-10-17T15:05:23.151Z,15.40
2022-10-17T15:07:51.721Z,14.90
2022-10-17T15:10:31.237Z,14.10
2022-10-17T15:13:26.187Z,14.27
2022-10-17T15:15:52.112Z,16.40
2022-10-17T15:18:22.138Z,20.37
2022-10-17T15:20:59.492Z,24.10
2022-10-17T15:23:33.665Z,21.50
2022-10-17T15:26:02.455Z,20.27
2022-10-17T15:28:31.018Z,20.00
2022-10-17T15:30:59.572Z,18.03
2022-10-17T15:33:29.350Z,16.87
2022-10-17T15:38:26.136Z,15.60
2022-10-17T15:40:54.595Z,15.77
2022-10-17T15:43:23.058Z,15.27
2022-10-17T15:45:51.523Z,15.10
2022-10-17T15:48:21.379Z,15.47
2022-10-17T15:50:51.201Z,15.10
2022-10-17T15:53:19.687Z,16.17
2022-10-17T15:55:50.847Z,16.87
2022-10-17T15:58:20.025Z,17.93
2022-10-17T16:00:49.055Z,16.57
2022-10-17T16:03:17.643Z,16.10
2022-10-17T16:05:46.044Z,16.50
2022-10-17T16:08:15.840Z,16.20
2022-10-17T16:10:44.302Z,17.07
2022-10-17T16:13:17.769Z,15.90
2022-10-17T16:15:46.219Z,16.50
2022-10-17T16:18:14.667Z,16.93
2022-10-17T16:20:43.266Z,18.20
2022-10-17T16:23:15.033Z,18.00
2022-10-17T16:25:43.551Z,19.17
2022-10-17T16:28:12.161Z,19.10
2022-10-17T16:30:45.046Z,20.80
2022-10-17T16:33:13.750Z,19.07
2022-10-17T16:35:42.185Z,20.67
2022-10-17T16:38:10.609Z,22.70
2022-10-17T16:40:40.811Z,25.73
2022-10-17T16:43:10.087Z,24.07
2022-10-17T16:45:38.494Z,22.00
2022-10-17T16:48:07.281Z,20.63
2022-10-17T16:50:35.785Z,21.57
2022-10-17T16:53:04.342Z,21.53
2022-10-17T16:55:32.839Z,21.20
2022-10-17T16:58:02.655Z,19.03
2022-10-17T17:00:31.153Z,18.60
2022-10-17T17:02:59.591Z,18.37
2022-10-17T17:05:28.354Z,19.70
2022-10-17T17:07:56.850Z,19.03
2022-10-17T17:10:25.271Z,19.07
2022-10-17T17:12:53.704Z,19.40
2022-10-17T17:15:23.676Z,18.83
2022-10-17T17:17:55.525Z,18.83
2022-10-17T17:20:24.552Z,19.23
2022-10-17T17:22:53.043Z,20.40
2022-10-17T17:25:21.507Z,19.93
2022-10-17T17:27:49.933Z,19.93
2022-10-17T17:30:18.512Z,19.30
2022-10-17T17:32:48.350Z,18.77
2022-10-17T17:35:16.841Z,18.53
2022-10-17T17:37:45.303Z,20.93
2022-10-17T17:40:13.920Z,19.20
2022-10-17T17:42:42.299Z,18.50
2022-10-17T17:45:11.587Z,17.73
2022-10-17T17:47:39.977Z,21.77
2022-10-17T17:50:10.479Z,24.70
2022-10-17T17:52:41.874Z,20.90
2022-10-17T17:55:11.041Z,19.53
2022-10-17T17:57:39.739Z,17.53
2022-10-17T18:00:09.488Z,23.40
2022-10-17T18:02:42.129Z,22.17
2022-10-17T18:05:14.134Z,23.57
2022-10-17T18:07:42.689Z,19.13
2022-10-17T18:12:44.101Z,17.40
2022-10-17T18:15:12.751Z,19.33
2022-10-17T18:17:41.281Z,18.53
2022-10-17T18:20:10.516Z,17.57
2022-10-17T18:22:40.378Z,18.53
2022-10-17T18:25:09.287Z,18.90
2022-10-17T18:27:37.715Z,18.60
2022-10-17T18:30:08.494Z,17.10
2022-10-17T18:32:36.906Z,19.70
2022-10-17T18:35:05.587Z,30.87
2022-10-17T18:37:34.204Z,21.97
2022-10-17T18:40:04.021Z,62.43
2022-10-17T18:42:33.440Z,53.97
2022-10-17T18:45:03.281Z,47.97
2022-10-17T18:47:31.981Z,31.10
2022-10-17T18:50:00.587Z,33.00
2022-10-17T18:52:29.027Z,45.63
2022-10-17T18:54:57.408Z,39.07
2022-10-17T18:57:27.285Z,43.50
2022-10-17T18:59:55.763Z,66.80
2022-10-17T19:02:24.152Z,48.97
2022-10-17T19:04:52.595Z,45.07
2022-10-17T19:07:21.040Z,32.23
2022-10-17T19:09:49.740Z,21.90
2022-10-17T19:12:18.174Z,21.43
2022-10-17T19:14:49.798Z,22.30
2022-10-17T19:17:18.213Z,21.30
2022-10-17T19:19:49.988Z,20.60
2022-10-17T19:22:18.424Z,20.03
2022-10-17T19:24:46.855Z,22.80
2022-10-17T19:27:15.377Z,22.40
2022-10-17T19:29:44.089Z,21.67
2022-10-17T19:32:16.776Z,20.17
2022-10-17T19:34:47.638Z,18.97
2022-10-17T19:37:16.061Z,21.30
2022-10-17T19:39:44.491Z,20.97
2022-10-17T19:42:12.922Z,19.67
2022-10-17T19:44:41.326Z,18.93
2022-10-17T19:47:09.721Z,17.53
2022-10-17T19:49:40.462Z,20.80
2022-10-17T19:52:08.896Z,19.70
2022-10-17T19:54:38.941Z,19.63
2022-10-17T19:57:09.642Z,19.43
2022-10-17T19:59:39.082Z,21.13
2022-10-17T20:02:07.628Z,20.33
2022-10-17T20:04:37.580Z,20.13
2022-10-17T20:07:12.064Z,19.97
2022-10-17T20:09:40.458Z,21.13
2022-10-17T20:12:09.463Z,20.53
2022-10-17T20:14:40.996Z,20.30
2022-10-17T20:17:09.748Z,20.73
2022-10-17T20:19:38.170Z,20.33
2022-10-17T20:22:06.643Z,45.87
2022-10-17T20:24:53.274Z,67.60
2022-10-17T20:27:26.851Z,84.73
2022-10-17T20:30:01.585Z,50.67
2022-10-17T20:32:32.219Z,38.20
2022-10-17T20:35:00.830Z,42.63
2022-10-17T20:37:29.567Z,94.37
2022-10-17T20:40:16.839Z,55.37
2022-10-17T20:42:47.975Z,29.67
2022-10-17T20:45:16.491Z,23.67
2022-10-17T20:47:49.176Z,22.60
2022-10-17T20:50:20.042Z,23.37
2022-10-17T20:52:48.468Z,21.07
2022-10-17T20:55:18.419Z,23.83
2022-10-17T20:57:46.903Z,22.53
2022-10-17T21:00:16.206Z,21.03
2022-10-17T21:02:44.714Z,22.27
2022-10-17T21:05:13.266Z,20.43
2022-10-17T21:07:41.768Z,19.70
2022-10-17T21:10:34.308Z,19.70
2022-10-17T21:13:00.971Z,21.30
2022-10-17T21:15:29.595Z,23.40
2022-10-17T21:17:58.019Z,33.67
2022-10-17T21:20:26.430Z,48.37
2022-10-17T21:22:54.881Z,23.97
2022-10-17T21:25:23.267Z,19.27
2022-10-17T21:27:53.426Z,20.33
2022-10-17T21:30:23.200Z,20.50
2022-10-17T21:32:55.240Z,19.37
2022-10-17T21:35:23.974Z,19.07
2022-10-17T21:37:52.728Z,18.73
2022-10-17T21:40:21.227Z,18.73
2022-10-17T21:42:49.627Z,17.83
2022-10-17T21:45:25.440Z,19.00
2022-10-17T21:48:12.272Z,18.90
2022-10-17T21:50:44.112Z,18.17
2022-10-17T21:53:12.906Z,18.23
2022-10-17T21:55:41.331Z,18.23
2022-10-17T21:58:09.857Z,17.20
2022-10-17T22:00:38.318Z,17.67
2022-10-17T22:03:09.587Z,18.53
2022-10-17T22:05:38.112Z,20.13
2022-10-17T22:08:06.942Z,26.37
2022-10-17T22:10:37.945Z,38.27
2022-10-17T22:13:06.694Z,92.23
2022-10-17T22:15:35.188Z,50.43
2022-10-17T22:18:03.678Z,31.20
2022-10-17T22:20:34.944Z,32.97
2022-10-17T22:23:03.371Z,58.33
2022-10-17T22:25:31.794Z,88.53
2022-10-17T22:28:00.220Z,57.07
2022-10-17T22:30:28.645Z,45.57
2022-10-17T22:32:57.046Z,43.83
2022-10-17T22:35:25.543Z,34.90
2022-10-17T22:37:55.385Z,30.63
2022-10-17T22:40:23.883Z,22.20
2022-10-17T22:42:52.334Z,21.70
2022-10-17T22:45:20.847Z,19.87
2022-10-17T22:47:49.370Z,20.20
2022-10-17T22:50:17.858Z,19.10
2022-10-17T22:52:46.273Z,19.23
2022-10-17T22:55:16.417Z,18.47
2022-10-17T22:57:45.024Z,17.90
2022-10-17T23:00:14.403Z,18.90
2022-10-17T23:02:42.916Z,16.63
2022-10-17T23:05:12.041Z,17.90
2022-10-17T23:07:40.582Z,18.60
2022-10-17T23:10:09.705Z,16.60
2022-10-17T23:12:39.534Z,17.20
2022-10-17T23:15:09.180Z,16.50
2022-10-17T23:17:37.649Z,15.23
2022-10-17T23:20:06.899Z,15.80
2022-10-17T23:22:35.332Z,16.37
2022-10-17T23:25:04.078Z,16.27
2022-10-17T23:27:32.514Z,15.40
2022-10-17T23:30:02.361Z,15.03
2022-10-17T23:32:31.039Z,16.33
2022-10-17T23:34:59.671Z,15.60
2022-10-17T23:37:28.473Z,15.33
2022-10-17T23:39:57.097Z,17.77
2022-10-17T23:42:25.637Z,15.73
2022-10-17T23:44:54.285Z,15.37
2022-10-17T23:47:24.046Z,15.73
2022-10-17T23:49:53.187Z,16.03
2022-10-17T23:52:21.631Z,16.00
2022-10-17T23:54:50.128Z,15.10
2022-10-17T23:57:18.564Z,15.53
2022-10-17T23:59:47.009Z,15.17
